Time;durP1;ratioP1;P1;durP2;ratioP2;P2;SDS_P1;SDS_P2;PMS_P1;PMS_P2;Temp;Humidity;BMP_temperature;BMP_pressure;BME280_temperature;BME280_humidity;BME280_pressure;Samples;Min_cycle;Max_cycle;Signal;HPM_P1;HPM_P2
2021/11/21 00:02:04;;;;;;;24.73;12.27;;;8.10;99.90;;;;;;5027392;28;20451;-74
2021/11/21 00:04:30;;;;;;;19.40;12.43;;;8.10;99.90;;;;;;5029078;28;20478;-74
2021/11/21 00:06:56;;;;;;;20.97;11.20;;;8.10;99.90;;;;;;5016696;28;20447;-74
2021/11/21 00:09:21;;;;;;;19.73;11.00;;;8.10;99.90;;;;;;5030968;28;20283;-74
2021/11/21 00:11:48;;;;;;;17.73;10.70;;;8.00;99.90;;;;;;5027156;28;20220;-72
2021/11/21 00:14:14;;;;;;;19.93;11.53;;;8.00;99.90;;;;;;5015460;28;20231;-74
2021/11/21 00:16:40;;;;;;;19.17;10.40;;;8.00;99.90;;;;;;5001895;28;20472;-73
2021/11/21 00:19:08;;;;;;;25.37;12.53;;;8.00;99.90;;;;;;5014304;28;20237;-74
2021/11/21 00:21:34;;;;;;;24.83;12.20;;;8.00;99.90;;;;;;4997110;28;20483;-74
2021/11/21 00:24:00;;;;;;;18.97;11.13;;;8.00;99.90;;;;;;5035196;28;20304;-74
2021/11/21 00:26:26;;;;;;;22.23;11.63;;;8.00;99.90;;;;;;5021776;28;20239;-73
2021/11/21 00:28:53;;;;;;;16.87;8.60;;;8.00;99.90;;;;;;5013393;28;20501;-74
2021/11/21 00:31:19;;;;;;;19.93;9.83;;;7.90;99.90;;;;;;5021771;28;20451;-74
2021/11/21 00:33:45;;;;;;;15.20;8.73;;;7.90;99.90;;;;;;5025980;28;20928;-75
2021/11/21 00:36:11;;;;;;;23.37;10.93;;;7.90;99.90;;;;;;4997593;28;20483;-74
2021/11/21 00:38:38;;;;;;;23.97;12.20;;;7.90;99.90;;;;;;5017638;28;20524;-74
2021/11/21 00:41:04;;;;;;;18.80;9.17;;;7.80;99.90;;;;;;5042099;28;20490;-74
2021/11/21 00:43:30;;;;;;;17.70;8.57;;;7.90;99.90;;;;;;5012959;28;21208;-73
2021/11/21 00:45:56;;;;;;;16.43;10.00;;;7.80;99.90;;;;;;5022065;28;20534;-74
2021/11/21 00:48:24;;;;;;;22.50;9.97;;;7.90;99.90;;;;;;5012697;28;20983;-74
2021/11/21 00:50:54;;;;;;;24.50;9.47;;;7.90;99.90;;;;;;5012239;28;20597;-75
2021/11/21 00:53:20;;;;;;;21.37;9.00;;;7.90;99.90;;;;;;5012152;28;20452;-74
2021/11/21 00:55:52;;;;;;;17.07;9.30;;;7.90;99.90;;;;;;5011695;28;20451;-74
2021/11/21 00:58:18;;;;;;;19.93;9.87;;;7.90;99.90;;;;;;5030055;28;20451;-75
2021/11/21 01:00:48;;;;;;;19.10;9.43;;;7.90;99.90;;;;;;4995774;28;20500;-74
2021/11/21 01:03:19;;;;;;;14.50;7.40;;;7.90;99.90;;;;;;5013056;28;20221;-74
2021/11/21 01:05:46;;;;;;;21.90;9.30;;;7.80;99.90;;;;;;5012594;28;20443;-75
2021/11/21 01:08:12;;;;;;;19.50;9.70;;;7.90;99.90;;;;;;5018834;28;20459;-74
2021/11/21 01:10:38;;;;;;;23.83;8.13;;;7.80;99.90;;;;;;5001902;28;21082;-74
2021/11/21 01:13:05;;;;;;;18.20;8.13;;;7.80;99.90;;;;;;5032631;28;20461;-74
2021/11/21 01:15:33;;;;;;;21.10;7.53;;;7.80;99.90;;;;;;5032273;28;20470;-75
2021/11/21 01:17:59;;;;;;;22.60;9.27;;;7.80;99.90;;;;;;4995823;28;20478;-75
2021/11/21 01:20:28;;;;;;;16.43;8.73;;;7.90;99.90;;;;;;4993180;28;20515;-74
2021/11/21 01:22:54;;;;;;;14.07;7.90;;;7.90;99.90;;;;;;4995803;28;20464;-75
2021/11/21 01:25:20;;;;;;;16.03;8.27;;;7.90;99.90;;;;;;5030364;28;20491;-75
2021/11/21 01:27:48;;;;;;;11.90;8.13;;;7.90;99.90;;;;;;5012018;28;20213;-75
2021/11/21 01:30:19;;;;;;;13.30;7.10;;;7.80;99.90;;;;;;5004699;28;20452;-75
2021/11/21 01:32:45;;;;;;;14.07;8.23;;;7.80;99.90;;;;;;4995625;28;20519;-74
2021/11/21 01:35:12;;;;;;;14.30;8.80;;;7.80;99.90;;;;;;4996618;28;20538;-75
2021/11/21 01:37:38;;;;;;;11.27;7.93;;;7.90;99.90;;;;;;4995289;28;20455;-74
2021/11/21 01:40:07;;;;;;;12.33;7.87;;;7.90;99.90;;;;;;5030487;28;20452;-74
2021/11/21 01:42:32;;;;;;;13.63;7.33;;;7.90;99.90;;;;;;5012485;28;20533;-75
2021/11/21 01:44:58;;;;;;;17.87;8.67;;;7.80;99.90;;;;;;4995173;28;20456;-75
2021/11/21 01:47:24;;;;;;;19.43;8.40;;;7.90;99.90;;;;;;5012510;28;20303;-74
2021/11/21 01:49:50;;;;;;;15.23;7.97;;;7.90;99.90;;;;;;5012771;28;20228;-75
2021/11/21 01:52:16;;;;;;;17.67;9.40;;;7.90;99.90;;;;;;5016187;28;20219;-75
2021/11/21 01:54:42;;;;;;;16.03;9.00;;;7.90;99.90;;;;;;4991303;28;20610;-75
2021/11/21 01:57:07;;;;;;;16.10;8.73;;;7.90;99.90;;;;;;5000364;28;20524;-75
2021/11/21 01:59:35;;;;;;;13.57;7.47;;;7.90;99.90;;;;;;5016890;28;20224;-75
2021/11/21 02:02:01;;;;;;;14.53;7.67;;;7.90;99.90;;;;;;5016620;28;20251;-74
2021/11/21 02:04:26;;;;;;;15.73;7.10;;;7.90;99.90;;;;;;5016148;28;20478;-74
2021/11/21 02:06:52;;;;;;;16.80;8.50;;;7.90;99.90;;;;;;5015970;28;20835;-75
2021/11/21 02:09:18;;;;;;;17.17;7.17;;;7.80;99.90;;;;;;5002299;28;20609;-74
2021/11/21 02:11:44;;;;;;;17.40;8.47;;;7.80;99.90;;;;;;5015615;28;20568;-74
2021/11/21 02:14:10;;;;;;;18.93;9.13;;;7.70;99.90;;;;;;5034050;28;20235;-75
2021/11/21 02:16:36;;;;;;;17.10;7.40;;;7.70;99.90;;;;;;5032592;28;20224;-74
2021/11/21 02:19:02;;;;;;;16.30;7.90;;;7.70;99.90;;;;;;5002493;28;20226;-75
2021/11/21 02:21:28;;;;;;;15.60;7.63;;;7.60;99.90;;;;;;5024667;28;20459;-74
2021/11/21 02:23:54;;;;;;;13.83;6.97;;;7.60;99.90;;;;;;5020188;28;20223;-75
2021/11/21 02:26:20;;;;;;;10.77;6.80;;;7.60;99.90;;;;;;5033471;28;20455;-75
2021/11/21 02:28:48;;;;;;;15.87;7.43;;;7.60;99.90;;;;;;4995567;28;20474;-75
2021/11/21 02:31:15;;;;;;;15.87;7.27;;;7.60;99.90;;;;;;4996487;28;20225;-75
2021/11/21 02:33:42;;;;;;;11.80;6.70;;;7.60;99.90;;;;;;5036349;28;20504;-74
2021/11/21 02:36:09;;;;;;;11.80;5.90;;;7.60;99.90;;;;;;5018819;28;20474;-74
2021/11/21 02:38:36;;;;;;;11.10;6.57;;;7.60;99.90;;;;;;5006082;28;20490;-74
2021/11/21 02:41:06;;;;;;;9.43;5.87;;;7.70;99.90;;;;;;5033446;28;20458;-75
2021/11/21 02:43:32;;;;;;;16.00;7.47;;;7.70;99.90;;;;;;4999173;28;20459;-75
2021/11/21 02:45:59;;;;;;;13.00;5.90;;;7.70;99.90;;;;;;5023677;28;20454;-74
2021/11/21 02:48:28;;;;;;;14.97;6.70;;;7.70;99.90;;;;;;4999656;28;20466;-75
2021/11/21 02:50:55;;;;;;;13.63;7.77;;;7.70;99.90;;;;;;5005996;28;20474;-75
2021/11/21 02:53:25;;;;;;;13.03;7.40;;;7.70;99.90;;;;;;5007174;28;20463;-75
2021/11/21 02:55:53;;;;;;;13.63;7.23;;;7.70;99.90;;;;;;4998004;28;20463;-76
2021/11/21 02:58:19;;;;;;;13.30;6.50;;;7.70;99.90;;;;;;5011653;28;20451;-74
2021/11/21 03:00:45;;;;;;;13.43;7.10;;;7.70;99.90;;;;;;5032428;28;20505;-74
2021/11/21 03:03:13;;;;;;;17.50;7.13;;;7.70;99.90;;;;;;5011972;28;20535;-75
2021/11/21 03:05:39;;;;;;;16.00;8.20;;;7.60;99.90;;;;;;5014268;28;20498;-73
2021/11/21 03:08:05;;;;;;;16.40;6.90;;;7.60;99.90;;;;;;5000216;28;20479;-75
2021/11/21 03:10:32;;;;;;;12.97;7.03;;;7.60;99.90;;;;;;5014924;28;20447;-74
2021/11/21 03:13:00;;;;;;;11.20;6.60;;;7.50;99.90;;;;;;4998100;28;20501;-75
2021/11/21 03:15:26;;;;;;;12.97;7.00;;;7.50;99.90;;;;;;4998382;28;20455;-75
2021/11/21 03:17:53;;;;;;;11.90;7.00;;;7.60;99.90;;;;;;5013644;28;20479;-74
2021/11/21 03:20:22;;;;;;;12.07;7.70;;;7.60;99.90;;;;;;5017172;28;20574;-75
2021/11/21 03:22:48;;;;;;;15.30;7.43;;;7.60;99.90;;;;;;5009624;28;20463;-74
2021/11/21 03:25:14;;;;;;;10.03;6.63;;;7.60;99.90;;;;;;5014901;28;20494;-74
2021/11/21 03:27:41;;;;;;;8.90;6.13;;;7.50;99.90;;;;;;5030239;28;20935;-74
2021/11/21 03:30:10;;;;;;;9.87;6.07;;;7.50;99.90;;;;;;5014909;28;20270;-73
2021/11/21 03:32:38;;;;;;;9.50;6.70;;;7.50;99.90;;;;;;5014189;28;20983;-74
2021/11/21 03:35:05;;;;;;;9.73;5.97;;;7.50;99.90;;;;;;4998290;28;20462;-74
2021/11/21 03:37:31;;;;;;;10.03;7.20;;;7.50;99.90;;;;;;4998613;28;20996;-75
2021/11/21 03:39:57;;;;;;;12.63;7.87;;;7.40;99.90;;;;;;5014378;28;20460;-75
2021/11/21 03:42:23;;;;;;;12.13;7.83;;;7.40;99.90;;;;;;5014044;28;20491;-74
2021/11/21 03:44:49;;;;;;;16.27;7.43;;;7.40;99.90;;;;;;5017324;28;20613;-74
2021/11/21 03:47:15;;;;;;;11.23;7.37;;;7.40;99.90;;;;;;5031266;28;20451;-73
2021/11/21 03:49:42;;;;;;;11.57;6.70;;;7.30;99.90;;;;;;5004371;28;20232;-74
2021/11/21 03:52:08;;;;;;;12.70;7.27;;;7.30;99.90;;;;;;5014482;28;20455;-74
2021/11/21 03:54:34;;;;;;;9.90;6.40;;;7.30;99.90;;;;;;5031843;28;20458;-74
2021/11/21 03:57:00;;;;;;;11.60;7.17;;;7.30;99.90;;;;;;5018783;28;20455;-74
2021/11/21 03:59:26;;;;;;;13.77;7.17;;;7.30;99.90;;;;;;5031947;28;20451;-74
2021/11/21 04:01:54;;;;;;;12.90;7.77;;;7.30;99.90;;;;;;4996873;28;20240;-74
2021/11/21 04:04:21;;;;;;;12.23;7.50;;;7.20;99.90;;;;;;5004145;28;20274;-74
2021/11/21 04:06:47;;;;;;;13.47;7.37;;;7.20;99.90;;;;;;5028444;28;20452;-74
2021/11/21 04:09:13;;;;;;;10.80;6.60;;;7.20;99.90;;;;;;5013650;28;20570;-74
2021/11/21 04:11:39;;;;;;;12.50;6.93;;;7.30;99.90;;;;;;5031136;28;20513;-74
2021/11/21 04:14:05;;;;;;;11.60;6.50;;;7.20;99.90;;;;;;4996926;28;20459;-75
2021/11/21 04:16:30;;;;;;;12.63;7.33;;;7.20;99.90;;;;;;4997298;28;20345;-74
2021/11/21 04:18:56;;;;;;;12.60;6.80;;;7.20;99.90;;;;;;5013537;28;20228;-74
2021/11/21 04:21:22;;;;;;;13.30;6.47;;;7.20;99.90;;;;;;5025144;28;20215;-74
2021/11/21 04:23:48;;;;;;;10.17;6.47;;;7.20;99.90;;;;;;5016537;28;20709;-74
2021/11/21 04:26:15;;;;;;;10.53;6.60;;;7.20;99.90;;;;;;5013654;28;20509;-74
2021/11/21 04:28:41;;;;;;;14.53;7.40;;;7.20;99.90;;;;;;4996606;28;20228;-74
2021/11/21 04:31:07;;;;;;;12.57;6.47;;;7.20;99.90;;;;;;5031519;28;20455;-74
2021/11/21 04:33:33;;;;;;;11.87;6.63;;;7.20;99.90;;;;;;5010954;28;20500;-74
2021/11/21 04:35:59;;;;;;;11.90;6.40;;;7.20;99.90;;;;;;5012805;28;20476;-74
2021/11/21 04:38:25;;;;;;;9.23;5.47;;;7.10;99.90;;;;;;5031262;28;20513;-74
2021/11/21 04:40:53;;;;;;;12.30;6.37;;;7.10;99.90;;;;;;5013194;28;20455;-73
2021/11/21 04:43:20;;;;;;;8.63;5.83;;;7.10;99.90;;;;;;5030973;28;20228;-74
2021/11/21 04:45:47;;;;;;;10.70;6.17;;;7.10;99.90;;;;;;5012239;28;20448;-74
2021/11/21 04:48:13;;;;;;;12.80;7.40;;;7.10;99.90;;;;;;5013603;28;20451;-74
2021/11/21 04:50:39;;;;;;;11.13;6.17;;;7.10;99.90;;;;;;4996697;28;20547;-74
2021/11/21 04:53:05;;;;;;;11.67;6.60;;;7.10;99.90;;;;;;5029164;28;20227;-74
2021/11/21 04:55:31;;;;;;;11.60;6.77;;;7.10;99.90;;;;;;5010997;28;20459;-74
2021/11/21 04:57:57;;;;;;;9.33;6.03;;;7.10;99.90;;;;;;5030220;28;20467;-74
2021/11/21 05:00:23;;;;;;;14.33;6.20;;;7.10;99.90;;;;;;4999356;28;20993;-74
2021/11/21 05:02:51;;;;;;;7.43;6.30;;;7.00;99.90;;;;;;4980226;28;20239;-74
2021/11/21 05:05:19;;;;;;;9.37;5.77;;;7.00;99.90;;;;;;5012979;28;20538;-74
2021/11/21 05:07:46;;;;;;;7.80;5.20;;;6.90;99.90;;;;;;4995321;28;20455;-73
2021/11/21 05:10:12;;;;;;;12.90;7.00;;;6.90;99.90;;;;;;4995486;28;20459;-74
2021/11/21 05:12:39;;;;;;;7.30;4.97;;;6.90;99.90;;;;;;5011647;28;20513;-74
2021/11/21 05:15:07;;;;;;;13.00;6.50;;;6.90;99.90;;;;;;5013723;28;20451;-74
2021/11/21 05:17:33;;;;;;;11.03;5.60;;;6.80;99.90;;;;;;5032667;28;20505;-74
2021/11/21 05:19:59;;;;;;;9.03;5.80;;;6.80;99.90;;;;;;5013024;28;20474;-74
2021/11/21 05:22:26;;;;;;;12.10;6.37;;;6.80;99.90;;;;;;5029166;28;20240;-75
2021/11/21 05:24:54;;;;;;;13.80;6.73;;;6.80;99.90;;;;;;4995143;28;20516;-74
2021/11/21 05:27:21;;;;;;;12.10;6.20;;;6.80;99.90;;;;;;5012485;28;20459;-74
2021/11/21 05:29:47;;;;;;;8.93;5.73;;;6.90;99.90;;;;;;5021747;28;20459;-73
2021/11/21 05:32:13;;;;;;;8.30;4.80;;;6.90;99.90;;;;;;5014408;28;20510;-74
2021/11/21 05:34:38;;;;;;;10.73;6.30;;;6.90;99.90;;;;;;5011569;28;20312;-73
2021/11/21 05:37:05;;;;;;;12.23;5.83;;;6.90;99.90;;;;;;5001947;28;20555;-73
2021/11/21 05:39:31;;;;;;;8.17;5.53;;;6.90;99.90;;;;;;5001728;28;20223;-74
2021/11/21 05:41:57;;;;;;;10.67;5.90;;;6.90;99.90;;;;;;4995634;28;20453;-74
2021/11/21 05:44:23;;;;;;;10.80;5.90;;;6.90;99.90;;;;;;4979803;28;20467;-74
2021/11/21 05:46:48;;;;;;;21.90;6.60;;;6.90;99.90;;;;;;5011366;28;20220;-74
2021/11/21 05:49:14;;;;;;;12.60;6.00;;;6.90;99.90;;;;;;5003368;28;20219;-74
2021/11/21 05:51:40;;;;;;;11.60;5.30;;;6.90;99.90;;;;;;5012688;28;20595;-74
2021/11/21 05:54:06;;;;;;;14.87;5.90;;;6.90;99.90;;;;;;5012398;28;20216;-74
2021/11/21 05:56:32;;;;;;;9.73;5.53;;;6.90;99.90;;;;;;5017943;28;20302;-74
2021/11/21 05:58:57;;;;;;;11.20;5.77;;;6.90;99.90;;;;;;5013726;28;20299;-74
2021/11/21 06:01:23;;;;;;;8.93;5.10;;;6.90;99.90;;;;;;5030173;28;20342;-74
2021/11/21 06:03:54;;;;;;;8.80;5.30;;;6.80;99.90;;;;;;4995323;28;20270;-74
2021/11/21 06:06:20;;;;;;;11.67;5.17;;;6.80;99.90;;;;;;4976828;28;20217;-74
2021/11/21 06:08:46;;;;;;;10.20;4.83;;;6.80;99.90;;;;;;4995312;28;20451;-74
2021/11/21 06:11:12;;;;;;;8.60;5.70;;;6.80;99.90;;;;;;4995541;28;20467;-74
2021/11/21 06:13:37;;;;;;;10.40;5.43;;;6.80;99.90;;;;;;4995128;28;20657;-74
2021/11/21 06:16:04;;;;;;;8.60;4.97;;;6.80;99.90;;;;;;5012438;28;20319;-74
2021/11/21 06:18:29;;;;;;;9.47;6.13;;;6.80;99.90;;;;;;5032427;28;20204;-74
2021/11/21 06:20:55;;;;;;;11.43;6.03;;;6.80;99.90;;;;;;5014171;28;20456;-74
2021/11/21 06:23:21;;;;;;;11.20;6.07;;;6.80;99.90;;;;;;5011592;28;20633;-75
2021/11/21 06:25:47;;;;;;;11.87;6.20;;;6.80;99.90;;;;;;5011416;28;20668;-74
2021/11/21 06:28:13;;;;;;;7.83;4.83;;;6.80;99.90;;;;;;4996084;28;20216;-74
2021/11/21 06:30:40;;;;;;;7.80;5.37;;;6.80;99.90;;;;;;5029555;28;20220;-74
2021/11/21 06:33:07;;;;;;;10.50;6.10;;;6.80;99.90;;;;;;5009820;28;20447;-74
2021/11/21 06:35:33;;;;;;;11.30;6.30;;;6.80;99.90;;;;;;5012375;28;20447;-74
2021/11/21 06:38:00;;;;;;;9.93;5.70;;;6.80;99.90;;;;;;5032850;28;20463;-74
2021/11/21 06:40:25;;;;;;;10.73;5.50;;;6.80;99.90;;;;;;4996220;28;20464;-73
2021/11/21 06:42:51;;;;;;;13.73;6.10;;;6.80;99.90;;;;;;5026868;28;20447;-74
2021/11/21 06:45:17;;;;;;;14.70;6.90;;;6.80;99.90;;;;;;5015742;28;20223;-74
2021/11/21 06:47:43;;;;;;;15.00;6.40;;;6.80;99.90;;;;;;5035073;28;20315;-72
2021/11/21 06:50:12;;;;;;;12.73;6.50;;;6.80;99.90;;;;;;5035586;28;20227;-73
2021/11/21 06:52:38;;;;;;;8.87;5.33;;;6.80;99.90;;;;;;5033145;28;20976;-73
2021/11/21 06:55:06;;;;;;;11.50;6.00;;;6.80;99.90;;;;;;5032998;28;20451;-74
2021/11/21 06:57:33;;;;;;;10.20;5.80;;;6.80;99.90;;;;;;4995752;28;20452;-74
2021/11/21 07:00:01;;;;;;;9.30;5.27;;;6.80;99.90;;;;;;5017813;28;20967;-75
2021/11/21 07:02:27;;;;;;;9.40;5.20;;;6.80;99.90;;;;;;5018987;28;20454;-74
2021/11/21 07:04:52;;;;;;;10.90;6.27;;;6.90;99.90;;;;;;5034445;28;20470;-74
2021/11/21 07:07:18;;;;;;;15.50;5.37;;;6.90;99.90;;;;;;5014646;28;20482;-74
2021/11/21 07:09:44;;;;;;;10.00;5.27;;;6.90;99.90;;;;;;5032243;28;20213;-74
2021/11/21 07:12:11;;;;;;;12.10;5.57;;;6.90;99.90;;;;;;5033134;28;20227;-74
2021/11/21 07:14:37;;;;;;;8.93;5.43;;;6.90;99.90;;;;;;5025384;28;20610;-71
2021/11/21 07:17:04;;;;;;;9.53;5.07;;;6.90;99.90;;;;;;5032671;28;20469;-74
2021/11/21 07:19:30;;;;;;;8.20;5.27;;;7.00;99.90;;;;;;4998787;28;20209;-74
2021/11/21 07:21:56;;;;;;;9.33;5.40;;;7.00;99.90;;;;;;5024677;28;20823;-74
2021/11/21 07:24:22;;;;;;;9.40;5.60;;;7.00;99.90;;;;;;5031796;28;20780;-74
2021/11/21 07:26:50;;;;;;;9.87;5.43;;;7.00;99.90;;;;;;5031696;28;20216;-74
2021/11/21 07:29:16;;;;;;;8.37;5.23;;;7.00;99.90;;;;;;5032557;28;20230;-74
2021/11/21 07:31:42;;;;;;;15.20;5.27;;;7.00;99.90;;;;;;5022489;28;20529;-74
2021/11/21 07:34:08;;;;;;;9.03;5.50;;;6.90;99.90;;;;;;5001857;28;20384;-74
2021/11/21 07:36:33;;;;;;;10.83;5.80;;;6.90;99.90;;;;;;4998119;28;20267;-74
2021/11/21 07:38:59;;;;;;;12.93;5.60;;;6.90;99.90;;;;;;5009991;28;20232;-74
2021/11/21 07:41:26;;;;;;;10.43;6.13;;;6.80;99.90;;;;;;5012209;28;20216;-74
2021/11/21 07:43:52;;;;;;;9.00;5.50;;;6.80;99.90;;;;;;5031763;28;20447;-74
2021/11/21 07:46:18;;;;;;;10.50;5.47;;;6.80;99.90;;;;;;5032452;28;20451;-74
2021/11/21 07:48:44;;;;;;;7.73;4.70;;;6.80;99.90;;;;;;5014372;28;20467;-73
2021/11/21 07:51:10;;;;;;;8.53;4.90;;;6.80;99.90;;;;;;5001095;28;20452;-74
2021/11/21 07:53:36;;;;;;;8.30;4.00;;;6.80;99.90;;;;;;5028300;28;20217;-73
2021/11/21 07:56:02;;;;;;;7.30;4.10;;;6.80;99.90;;;;;;5006576;28;20436;-74
2021/11/21 07:58:30;;;;;;;8.53;4.57;;;6.80;99.90;;;;;;5008951;28;20277;-73
2021/11/21 08:00:55;;;;;;;10.37;4.53;;;6.80;99.90;;;;;;4997769;28;20459;-74
2021/11/21 08:03:21;;;;;;;12.07;5.20;;;6.80;99.90;;;;;;5015736;28;20538;-74
2021/11/21 08:05:48;;;;;;;6.50;3.87;;;6.80;99.90;;;;;;4994163;28;20224;-74
2021/11/21 08:08:13;;;;;;;6.73;3.80;;;6.80;99.90;;;;;;5013936;28;20220;-74
2021/11/21 08:10:39;;;;;;;7.80;4.10;;;6.80;99.90;;;;;;4996503;28;20478;-73
2021/11/21 08:13:07;;;;;;;7.43;3.77;;;6.80;99.90;;;;;;5014029;28;20275;-76
2021/11/21 08:15:33;;;;;;;11.63;5.17;;;6.70;99.90;;;;;;5030732;28;20251;-73
2021/11/21 08:17:59;;;;;;;6.87;4.40;;;6.70;99.90;;;;;;5031367;28;20483;-75
2021/11/21 08:20:26;;;;;;;8.10;3.93;;;6.70;99.90;;;;;;5030742;28;20243;-74
2021/11/21 08:22:52;;;;;;;7.90;4.47;;;6.70;99.90;;;;;;4995787;28;20220;-74
2021/11/21 08:25:18;;;;;;;7.40;3.93;;;6.70;99.90;;;;;;5007335;28;20476;-74
2021/11/21 08:27:44;;;;;;;8.30;4.57;;;6.80;99.90;;;;;;5015951;28;20467;-72
2021/11/21 08:30:10;;;;;;;5.40;4.10;;;6.70;99.90;;;;;;4995479;28;20275;-74
2021/11/21 08:32:36;;;;;;;9.53;4.40;;;6.70;99.90;;;;;;5012420;28;20243;-74
2021/11/21 08:35:03;;;;;;;8.33;4.30;;;6.80;99.90;;;;;;5012878;28;20513;-74
2021/11/21 08:37:29;;;;;;;8.33;3.77;;;6.80;99.90;;;;;;5013462;28;20478;-74
2021/11/21 08:39:55;;;;;;;8.63;4.73;;;6.80;99.90;;;;;;5012465;28;20455;-74
2021/11/21 08:42:21;;;;;;;4.77;3.20;;;6.80;99.90;;;;;;5013627;28;20595;-74
2021/11/21 08:44:47;;;;;;;4.90;3.00;;;6.80;99.90;;;;;;5014582;28;20455;-74
2021/11/21 08:47:14;;;;;;;5.87;3.17;;;6.90;99.90;;;;;;5002368;28;20221;-73
2021/11/21 08:49:39;;;;;;;13.10;4.90;;;6.80;99.90;;;;;;5010649;28;20270;-74
2021/11/21 08:52:06;;;;;;;5.57;3.23;;;6.90;99.90;;;;;;5029743;28;20451;-74
2021/11/21 08:54:32;;;;;;;5.73;3.50;;;6.90;99.90;;;;;;5009223;28;20245;-74
2021/11/21 08:56:58;;;;;;;7.00;4.10;;;6.90;99.90;;;;;;5038939;28;20546;-74
2021/11/21 08:59:24;;;;;;;5.23;3.40;;;6.90;99.90;;;;;;5030739;28;20224;-74
2021/11/21 09:01:51;;;;;;;5.10;3.50;;;6.80;99.90;;;;;;5012192;28;20462;-73
2021/11/21 09:04:17;;;;;;;5.07;3.33;;;6.80;99.90;;;;;;5012373;28;20229;-74
2021/11/21 09:06:45;;;;;;;5.23;3.40;;;6.80;99.90;;;;;;4995975;28;20969;-72
2021/11/21 09:09:11;;;;;;;6.70;3.50;;;6.80;99.90;;;;;;4996142;28;20466;-74
2021/11/21 09:11:36;;;;;;;7.90;4.00;;;6.90;99.90;;;;;;5012273;28;20440;-74
2021/11/21 09:14:04;;;;;;;6.63;4.37;;;6.90;99.90;;;;;;5026044;28;20821;-74
2021/11/21 09:16:30;;;;;;;7.73;3.97;;;6.90;99.90;;;;;;5035602;28;20228;-74
2021/11/21 09:18:56;;;;;;;6.40;4.03;;;6.90;99.90;;;;;;4993784;28;20468;-74
2021/11/21 09:21:22;;;;;;;5.50;4.17;;;6.90;99.90;;;;;;4985463;28;20465;-74
2021/11/21 09:23:48;;;;;;;7.17;3.93;;;6.90;99.90;;;;;;5029631;28;20226;-74
2021/11/21 09:26:15;;;;;;;5.40;3.40;;;6.90;99.90;;;;;;4992524;28;20228;-74
2021/11/21 09:28:41;;;;;;;7.70;3.83;;;6.90;99.90;;;;;;5011488;28;20426;-74
2021/11/21 09:31:07;;;;;;;6.77;4.00;;;6.90;99.90;;;;;;4995539;28;20475;-74
2021/11/21 09:33:33;;;;;;;10.17;3.43;;;6.90;99.90;;;;;;5010214;28;20475;-74
2021/11/21 09:35:58;;;;;;;6.60;3.43;;;7.00;99.90;;;;;;5011478;28;20227;-74
2021/11/21 09:38:26;;;;;;;5.17;2.93;;;7.00;99.90;;;;;;5011984;28;20457;-74
2021/11/21 09:40:54;;;;;;;5.10;3.70;;;7.00;99.90;;;;;;4992990;28;20213;-74
2021/11/21 09:43:21;;;;;;;7.10;3.37;;;7.00;99.90;;;;;;5011023;28;20980;-74
2021/11/21 09:45:47;;;;;;;6.10;3.80;;;7.10;99.90;;;;;;5025330;28;20497;-74
2021/11/21 09:48:15;;;;;;;7.33;3.77;;;7.00;99.90;;;;;;5012701;28;20538;-74
2021/11/21 09:50:43;;;;;;;6.80;4.00;;;7.00;99.90;;;;;;5013696;28;20513;-73
2021/11/21 09:53:11;;;;;;;5.33;3.60;;;7.10;99.90;;;;;;5014623;28;20513;-74
2021/11/21 09:55:37;;;;;;;5.70;3.57;;;7.10;99.90;;;;;;5023041;28;20481;-74
2021/11/21 09:58:04;;;;;;;3.90;2.53;;;7.10;99.90;;;;;;5012328;28;20483;-74
2021/11/21 10:00:32;;;;;;;4.97;3.43;;;7.10;99.90;;;;;;5030062;28;20452;-74
2021/11/21 10:03:15;;;;;;;5.13;3.20;;;7.10;99.90;;;;;;4995112;28;20460;-74
2021/11/21 10:05:53;;;;;;;10.90;3.70;;;7.20;99.90;;;;;;5010566;28;20455;-74
2021/11/21 10:08:28;;;;;;;7.03;3.70;;;7.20;99.90;;;;;;5009930;28;20582;-74
2021/11/21 10:11:02;;;;;;;5.03;3.00;;;7.20;99.90;;;;;;5015333;28;20458;-74
2021/11/21 10:13:51;;;;;;;3.50;2.60;;;7.20;99.90;;;;;;5013815;28;20466;-73
2021/11/21 10:16:19;;;;;;;4.37;3.13;;;7.20;99.90;;;;;;5002102;28;20478;-74
2021/11/21 10:18:44;;;;;;;5.80;3.00;;;7.20;99.90;;;;;;5004040;28;20876;-73
2021/11/21 10:21:10;;;;;;;3.33;2.40;;;7.30;99.90;;;;;;4996833;28;20439;-74
2021/11/21 10:23:36;;;;;;;5.03;2.73;;;7.30;99.90;;;;;;5026474;28;20769;-74
2021/11/21 10:26:02;;;;;;;3.73;2.57;;;7.40;99.90;;;;;;5012565;28;20486;-74
2021/11/21 10:28:34;;;;;;;5.00;3.00;;;7.40;99.90;;;;;;5003380;28;20252;-74
2021/11/21 10:31:12;;;;;;;2.70;2.10;;;7.40;99.90;;;;;;4993100;28;20454;-74
2021/11/21 10:33:37;;;;;;;4.30;2.00;;;7.40;99.90;;;;;;5003938;28;20458;-73
2021/11/21 10:36:08;;;;;;;3.40;2.50;;;7.40;99.90;;;;;;5006118;28;20450;-74
2021/11/21 10:38:52;;;;;;;1.90;1.60;;;7.50;99.90;;;;;;5015098;28;20246;-74
2021/11/21 10:41:37;;;;;;;2.47;1.70;;;7.50;99.90;;;;;;5022149;28;20530;-74
2021/11/21 10:44:05;;;;;;;4.83;2.50;;;7.50;99.90;;;;;;5007346;28;20465;-74
2021/11/21 10:46:43;;;;;;;6.57;3.67;;;7.50;99.90;;;;;;5015263;28;20986;-74
2021/11/21 10:49:21;;;;;;;4.70;3.30;;;7.50;99.90;;;;;;4998848;28;20868;-74
2021/11/21 10:51:50;;;;;;;8.67;5.13;;;7.50;99.90;;;;;;5033047;28;20847;-74
2021/11/21 10:54:29;;;;;;;8.43;4.50;;;7.50;99.90;;;;;;5020875;28;20477;-74
2021/11/21 10:56:58;;;;;;;7.67;4.40;;;7.50;99.90;;;;;;5013947;28;20512;-74
2021/11/21 10:59:33;;;;;;;7.47;3.07;;;7.60;99.90;;;;;;4998512;28;20983;-75
2021/11/21 11:02:10;;;;;;;5.83;3.13;;;7.60;99.90;;;;;;5011867;28;20487;-74
2021/11/21 11:04:36;;;;;;;5.43;3.80;;;7.60;99.90;;;;;;5034210;28;20454;-74
2021/11/21 11:07:17;;;;;;;6.47;3.70;;;7.60;99.90;;;;;;5014732;28;20486;-74
2021/11/21 11:09:44;;;;;;;3.10;2.47;;;7.60;99.90;;;;;;5031266;28;20293;-74
2021/11/21 11:12:10;;;;;;;5.03;3.40;;;7.60;99.90;;;;;;5014606;28;20530;-74
2021/11/21 11:14:36;;;;;;;4.87;2.60;;;7.60;99.90;;;;;;4998268;28;20543;-75
2021/11/21 11:17:02;;;;;;;4.40;2.70;;;7.60;99.90;;;;;;5024459;28;20270;-73
2021/11/21 11:19:31;;;;;;;5.70;3.30;;;7.60;99.90;;;;;;5008219;28;20480;-75
2021/11/21 11:21:57;;;;;;;3.80;2.70;;;7.70;99.90;;;;;;4994478;28;20229;-74
2021/11/21 11:24:25;;;;;;;3.63;2.43;;;7.70;99.90;;;;;;4998074;28;20522;-74
2021/11/21 11:27:03;;;;;;;3.20;2.47;;;7.70;99.90;;;;;;4994692;28;20271;-74
2021/11/21 11:29:41;;;;;;;4.40;2.63;;;7.70;99.90;;;;;;5010083;28;20460;-74
2021/11/21 11:32:22;;;;;;;3.77;2.90;;;7.80;99.90;;;;;;5032013;28;20534;-74
2021/11/21 11:34:49;;;;;;;4.20;2.27;;;7.80;99.90;;;;;;4994164;28;20471;-75
2021/11/21 11:37:24;;;;;;;4.53;2.43;;;7.80;99.90;;;;;;5020726;28;20479;-74
2021/11/21 11:39:52;;;;;;;3.27;2.80;;;7.80;99.90;;;;;;4992089;28;20471;-73
2021/11/21 11:42:38;;;;;;;5.07;3.50;;;7.80;99.90;;;;;;5025821;28;20478;-74
2021/11/21 11:45:08;;;;;;;3.07;2.23;;;7.90;99.90;;;;;;5022139;28;20447;-74
2021/11/21 11:47:38;;;;;;;4.20;2.87;;;7.90;99.90;;;;;;5003193;28;20563;-73
2021/11/21 11:50:06;;;;;;;7.07;3.10;;;8.00;99.90;;;;;;5023783;28;20493;-74
2021/11/21 11:52:55;;;;;;;3.20;2.90;;;8.00;99.90;;;;;;4995524;28;20474;-74
2021/11/21 11:55:24;;;;;;;2.90;2.67;;;8.00;99.90;;;;;;5003988;28;20468;-74
2021/11/21 11:57:51;;;;;;;5.53;2.50;;;8.00;99.90;;;;;;5003787;28;20475;-74
2021/11/21 12:00:31;;;;;;;2.17;1.97;;;8.00;99.90;;;;;;5014078;28;20467;-74
2021/11/21 12:02:58;;;;;;;2.80;2.40;;;8.10;99.90;;;;;;4992620;28;21305;-74
2021/11/21 12:05:32;;;;;;;4.63;2.90;;;8.10;99.90;;;;;;5002109;28;20463;-74
2021/11/21 12:08:16;;;;;;;4.07;2.20;;;8.10;99.90;;;;;;5012620;28;20490;-76
2021/11/21 12:11:00;;;;;;;3.07;2.17;;;8.10;99.90;;;;;;4994968;28;20475;-75
2021/11/21 12:13:32;;;;;;;4.47;2.70;;;8.20;99.90;;;;;;5019706;28;20900;-74
2021/11/21 12:16:04;;;;;;;2.57;2.17;;;8.20;99.90;;;;;;5011941;28;20530;-74
2021/11/21 12:18:53;;;;;;;2.93;2.60;;;8.20;99.90;;;;;;5013254;28;20455;-74
2021/11/21 12:21:37;;;;;;;2.90;2.17;;;8.20;99.90;;;;;;5004521;28;20466;-74
2021/11/21 12:24:05;;;;;;;3.77;2.87;;;8.20;99.90;;;;;;5010150;28;20459;-74
2021/11/21 12:26:38;;;;;;;3.10;2.80;;;8.20;99.90;;;;;;4997302;28;20451;-74
2021/11/21 12:29:08;;;;;;;2.73;2.30;;;8.20;99.90;;;;;;5019716;28;20454;-74
2021/11/21 12:31:43;;;;;;;4.07;2.60;;;8.30;99.90;;;;;;5011330;28;20455;-72
2021/11/21 12:34:27;;;;;;;3.67;2.33;;;8.30;99.90;;;;;;4999617;28;20462;-74
2021/11/21 12:37:07;;;;;;;2.77;2.03;;;8.30;99.90;;;;;;5011339;28;20478;-74
2021/11/21 12:39:33;;;;;;;3.53;2.33;;;8.30;99.90;;;;;;4994989;28;20459;-74
2021/11/21 12:42:12;;;;;;;3.43;2.60;;;8.30;99.90;;;;;;5027984;28;20521;-75
2021/11/21 12:44:39;;;;;;;2.43;2.20;;;8.30;99.90;;;;;;5008548;28;20228;-76
2021/11/21 12:47:06;;;;;;;2.43;2.00;;;8.40;99.90;;;;;;5013421;28;20439;-76
2021/11/21 12:49:33;;;;;;;3.73;2.10;;;8.40;99.90;;;;;;5012862;28;20510;-73
2021/11/21 12:52:08;;;;;;;3.07;2.00;;;8.40;99.90;;;;;;5010373;28;20443;-73
2021/11/21 12:54:35;;;;;;;3.53;2.10;;;8.40;99.90;;;;;;5016963;28;20459;-74